Time;durP1;ratioP1;P1;durP2;ratioP2;P2;SDS_P1;SDS_P2;PMS_P1;PMS_P2;Temp;Humidity;BMP_temperature;BMP_pressure;BME280_temperature;BME280_humidity;BME280_pressure;Samples;Min_cycle;Max_cycle;Signal;HPM_P1;HPM_P2
2022/10/10 00:00:59;;;;;;;8.00;5.33;;;10.50;99.90;;;;;;5072601;28;20209;-80
2022/10/10 00:03:26;;;;;;;5.90;5.30;;;10.50;99.90;;;;;;5071766;28;20193;-79
2022/10/10 00:05:53;;;;;;;8.00;5.73;;;10.50;99.90;;;;;;5072513;28;20197;-80
2022/10/10 00:08:21;;;;;;;5.80;5.20;;;10.50;99.90;;;;;;5071841;28;20233;-80
2022/10/10 00:10:48;;;;;;;7.93;5.80;;;10.50;99.90;;;;;;5071482;28;20707;-79
2022/10/10 00:13:15;;;;;;;7.43;5.13;;;10.40;99.90;;;;;;5072256;28;20232;-80
2022/10/10 00:15:42;;;;;;;8.30;5.27;;;10.50;99.90;;;;;;5073845;28;20289;-79
2022/10/10 00:18:09;;;;;;;7.00;5.97;;;10.50;99.90;;;;;;5091910;28;20199;-80
2022/10/10 00:20:36;;;;;;;7.77;5.60;;;10.50;99.90;;;;;;5099817;22;20252;-81
2022/10/10 00:23:02;;;;;;;6.67;5.53;;;10.50;99.90;;;;;;5086513;28;20205;-80
2022/10/10 00:25:31;;;;;;;8.10;5.77;;;10.50;99.90;;;;;;5071527;28;20197;-78
2022/10/10 00:28:01;;;;;;;8.70;5.63;;;10.50;99.90;;;;;;5072020;28;20233;-80
2022/10/10 00:30:28;;;;;;;8.00;6.30;;;10.40;99.90;;;;;;5071968;28;20575;-81
2022/10/10 00:32:55;;;;;;;10.87;6.30;;;10.40;99.90;;;;;;5071317;28;20205;-80
2022/10/10 00:35:22;;;;;;;8.93;6.20;;;10.40;99.90;;;;;;5071348;28;20284;-80
2022/10/10 00:37:49;;;;;;;9.83;6.10;;;10.40;99.90;;;;;;5071470;28;20194;-79
2022/10/10 00:40:16;;;;;;;10.90;5.50;;;10.40;99.90;;;;;;5072065;28;20197;-81
2022/10/10 00:42:44;;;;;;;8.70;5.93;;;10.40;99.90;;;;;;5071956;28;20288;-79
2022/10/10 00:45:25;;;;;;;8.67;6.07;;;10.40;99.90;;;;;;5071778;28;20204;-80
2022/10/10 00:47:56;;;;;;;6.60;5.83;;;10.30;99.90;;;;;;5071906;28;20568;-80
2022/10/10 00:50:23;;;;;;;8.20;6.00;;;10.30;99.90;;;;;;5071652;28;20211;-80
2022/10/10 00:52:51;;;;;;;8.73;5.90;;;10.30;99.90;;;;;;5070720;28;20207;-83
2022/10/10 00:55:18;;;;;;;9.83;5.87;;;10.30;99.90;;;;;;5075435;28;20632;-79
2022/10/10 00:57:47;;;;;;;12.40;7.37;;;10.30;99.90;;;;;;5091855;28;20223;-80
2022/10/10 01:00:14;;;;;;;9.30;6.37;;;10.30;99.90;;;;;;5092893;28;20668;-79
2022/10/10 01:02:41;;;;;;;8.13;5.63;;;10.30;99.90;;;;;;5075129;28;20209;-80
2022/10/10 01:05:09;;;;;;;7.57;5.70;;;10.30;99.90;;;;;;5075123;28;20284;-80
2022/10/10 01:07:36;;;;;;;9.03;6.10;;;10.30;99.90;;;;;;5074576;28;20225;-80
2022/10/10 01:10:08;;;;;;;9.87;5.53;;;10.30;99.90;;;;;;5074461;28;20201;-80
2022/10/10 01:12:49;;;;;;;6.93;5.73;;;10.30;99.90;;;;;;5075201;28;20554;-79
2022/10/10 01:15:25;;;;;;;7.10;5.87;;;10.20;99.90;;;;;;5074260;28;20197;-79
2022/10/10 01:17:59;;;;;;;10.53;6.73;;;10.20;99.90;;;;;;5074805;28;20209;-81
2022/10/10 01:20:48;;;;;;;9.63;6.13;;;10.20;99.90;;;;;;5074299;28;20236;-80
2022/10/10 01:23:46;;;;;;;7.87;5.73;;;10.20;99.90;;;;;;5075056;28;20428;-80
2022/10/10 01:26:34;;;;;;;7.70;5.87;;;10.20;99.90;;;;;;5074422;28;20200;-80
2022/10/10 01:29:08;;;;;;;7.07;6.37;;;10.20;99.90;;;;;;5073753;28;20221;-82
2022/10/10 01:31:40;;;;;;;8.43;5.63;;;10.20;99.90;;;;;;5074631;28;20193;-79
2022/10/10 01:34:17;;;;;;;9.33;6.17;;;10.20;99.90;;;;;;5074284;28;20213;-78
2022/10/10 01:36:51;;;;;;;10.23;5.97;;;10.20;99.90;;;;;;5074846;28;20211;-80
2022/10/10 01:39:23;;;;;;;8.73;7.03;;;10.20;99.90;;;;;;5074826;28;20656;-78
2022/10/10 01:41:59;;;;;;;9.53;5.80;;;10.20;99.90;;;;;;5074250;28;20208;-78
2022/10/10 01:44:27;;;;;;;10.60;6.37;;;10.20;99.90;;;;;;5074677;28;20576;-80
2022/10/10 01:46:54;;;;;;;11.53;6.50;;;10.20;99.90;;;;;;5074496;28;20193;-80
2022/10/10 01:49:24;;;;;;;7.57;6.23;;;10.20;99.90;;;;;;5073040;28;20229;-80
2022/10/10 01:52:04;;;;;;;9.63;7.50;;;10.20;99.90;;;;;;5074493;28;20186;-81
2022/10/10 01:54:47;;;;;;;11.03;6.80;;;10.10;99.90;;;;;;5074383;28;20188;-80
2022/10/10 01:57:21;;;;;;;7.13;6.23;;;10.10;99.90;;;;;;5073518;28;20240;-80
2022/10/10 02:00:00;;;;;;;10.13;6.53;;;10.10;99.90;;;;;;5074163;28;20193;-78
2022/10/10 02:02:37;;;;;;;8.23;6.33;;;10.10;99.90;;;;;;5074101;28;20186;-80
2022/10/10 02:05:09;;;;;;;9.40;6.73;;;10.10;99.90;;;;;;5073798;28;20205;-79
2022/10/10 02:07:43;;;;;;;8.73;6.50;;;10.10;99.90;;;;;;5074122;28;20304;-78
2022/10/10 02:10:14;;;;;;;9.27;6.30;;;10.10;99.90;;;;;;5073493;28;20194;-77
2022/10/10 02:12:41;;;;;;;8.57;6.37;;;10.10;99.90;;;;;;5083304;28;20204;-79
2022/10/10 02:15:13;;;;;;;8.63;6.13;;;10.10;99.90;;;;;;5094465;28;20253;-79
2022/10/10 02:17:43;;;;;;;9.70;7.00;;;10.10;99.90;;;;;;5083808;28;20499;-81
2022/10/10 02:20:13;;;;;;;7.33;5.93;;;10.00;99.90;;;;;;5074077;28;20661;-79
2022/10/10 02:22:42;;;;;;;10.47;6.50;;;10.00;99.90;;;;;;5073507;28;20196;-80
2022/10/10 02:25:09;;;;;;;9.00;6.97;;;10.00;99.90;;;;;;5093741;28;20208;-76
2022/10/10 02:27:44;;;;;;;8.17;5.63;;;10.00;99.90;;;;;;5094518;28;20242;-79
2022/10/10 02:30:14;;;;;;;7.63;5.90;;;9.90;99.90;;;;;;5094248;28;20196;-79
2022/10/10 02:32:44;;;;;;;8.07;6.73;;;9.90;99.90;;;;;;5092021;28;20512;-79
2022/10/10 02:35:16;;;;;;;7.63;6.50;;;9.90;99.90;;;;;;5094384;28;20195;-79
2022/10/10 02:37:44;;;;;;;9.27;6.10;;;9.90;99.90;;;;;;5077209;28;20194;-77
2022/10/10 02:40:15;;;;;;;7.70;6.47;;;9.90;99.90;;;;;;5074076;28;20193;-78
2022/10/10 02:42:42;;;;;;;9.27;6.50;;;9.90;99.90;;;;;;5073846;28;20201;-79
2022/10/10 02:45:10;;;;;;;7.43;6.00;;;9.90;99.90;;;;;;5072793;28;20197;-78
2022/10/10 02:47:38;;;;;;;8.70;7.10;;;9.80;99.90;;;;;;5073337;28;20312;-78
2022/10/10 02:50:06;;;;;;;7.50;6.67;;;9.80;99.90;;;;;;5073122;28;20271;-79
2022/10/10 02:52:34;;;;;;;11.40;7.30;;;9.80;99.90;;;;;;5072908;28;20197;-77
2022/10/10 02:55:01;;;;;;;9.60;7.40;;;9.80;99.90;;;;;;5080620;28;20204;-79
2022/10/10 02:57:28;;;;;;;10.30;7.27;;;9.80;99.90;;;;;;5093211;28;20216;-79
2022/10/10 02:59:54;;;;;;;8.43;6.60;;;9.80;99.90;;;;;;5078113;28;20251;-79
2022/10/10 03:02:21;;;;;;;7.97;6.40;;;9.80;99.90;;;;;;5072926;28;20197;-78
2022/10/10 03:04:50;;;;;;;6.77;5.80;;;9.80;99.90;;;;;;5072577;28;20200;-79
2022/10/10 03:07:16;;;;;;;10.23;6.47;;;9.80;99.90;;;;;;5072453;28;20200;-78
2022/10/10 03:09:43;;;;;;;9.27;6.63;;;9.70;99.90;;;;;;5084666;28;20235;-80
2022/10/10 03:12:10;;;;;;;9.90;5.83;;;9.70;99.90;;;;;;5093631;28;20601;-79
2022/10/10 03:14:37;;;;;;;6.63;5.97;;;9.70;99.90;;;;;;5092977;28;20200;-79
2022/10/10 03:17:04;;;;;;;9.43;6.83;;;9.60;99.90;;;;;;5077658;28;20205;-80
2022/10/10 03:19:31;;;;;;;7.97;6.80;;;9.60;99.90;;;;;;5073678;28;20195;-79
2022/10/10 03:21:59;;;;;;;11.93;7.60;;;9.60;99.90;;;;;;5073852;28;20233;-79
2022/10/10 03:24:26;;;;;;;9.70;6.97;;;9.60;99.90;;;;;;5089038;28;20295;-78
2022/10/10 03:26:53;;;;;;;9.77;6.50;;;9.60;99.90;;;;;;5091477;28;20204;-79
2022/10/10 03:29:20;;;;;;;7.53;6.70;;;9.60;99.90;;;;;;5093370;28;20220;-80
2022/10/10 03:31:47;;;;;;;11.27;7.20;;;9.50;99.90;;;;;;5093346;28;20215;-79
2022/10/10 03:34:14;;;;;;;7.67;6.83;;;9.50;99.90;;;;;;5090986;28;20491;-82
2022/10/10 03:36:41;;;;;;;8.27;6.73;;;9.50;99.90;;;;;;5092744;28;20196;-78
2022/10/10 03:39:09;;;;;;;9.20;6.80;;;9.50;99.90;;;;;;5074692;28;20292;-79
2022/10/10 03:41:36;;;;;;;8.57;7.20;;;9.50;99.90;;;;;;5072049;28;20193;-79
2022/10/10 03:44:03;;;;;;;8.73;7.63;;;9.50;99.90;;;;;;5072259;28;20597;-78
2022/10/10 03:46:30;;;;;;;9.13;7.13;;;9.50;99.90;;;;;;5072710;28;20208;-79
2022/10/10 03:48:57;;;;;;;9.00;7.13;;;9.50;99.90;;;;;;5071790;28;20220;-79
2022/10/10 03:51:24;;;;;;;10.47;7.20;;;9.50;99.90;;;;;;5072812;28;20189;-79
2022/10/10 03:53:50;;;;;;;11.03;8.03;;;9.40;99.90;;;;;;5071988;28;20201;-80
2022/10/10 03:56:19;;;;;;;13.47;7.93;;;9.40;99.90;;;;;;5071399;28;20221;-79
2022/10/10 03:58:46;;;;;;;10.93;8.33;;;9.40;99.90;;;;;;5072334;28;20287;-78
2022/10/10 04:01:13;;;;;;;11.00;8.30;;;9.30;99.90;;;;;;5060273;28;20243;-78
2022/10/10 04:03:39;;;;;;;12.57;9.00;;;9.30;99.90;;;;;;5072251;28;20296;-79
2022/10/10 04:06:07;;;;;;;11.37;7.57;;;9.30;99.90;;;;;;5072003;28;20201;-80
2022/10/10 04:08:34;;;;;;;10.60;8.43;;;9.30;99.90;;;;;;5075336;28;20295;-78
2022/10/10 04:11:00;;;;;;;9.57;8.50;;;9.20;99.90;;;;;;5091671;28;20211;-79
2022/10/10 04:13:29;;;;;;;12.43;8.27;;;9.20;99.90;;;;;;5092594;28;20287;-79
2022/10/10 04:15:56;;;;;;;9.70;7.47;;;9.20;99.90;;;;;;5091991;28;20231;-80
2022/10/10 04:18:24;;;;;;;10.30;8.23;;;9.20;99.90;;;;;;5075352;28;20208;-79
2022/10/10 04:20:51;;;;;;;9.27;7.80;;;9.20;99.90;;;;;;5071331;28;20713;-79
2022/10/10 04:23:18;;;;;;;10.33;7.80;;;9.20;99.90;;;;;;5071929;28;20225;-78
2022/10/10 04:25:46;;;;;;;10.93;8.47;;;9.20;99.90;;;;;;5072335;28;20197;-78
2022/10/10 04:28:14;;;;;;;9.37;7.37;;;9.20;99.90;;;;;;5072089;28;20235;-77
2022/10/10 04:30:43;;;;;;;10.53;7.77;;;9.20;99.90;;;;;;5071093;28;20628;-78
2022/10/10 04:33:11;;;;;;;10.53;7.60;;;9.20;99.90;;;;;;5072222;28;20219;-79
2022/10/10 04:35:38;;;;;;;11.87;7.40;;;9.20;99.90;;;;;;5074772;28;20197;-79
2022/10/10 04:38:05;;;;;;;12.03;7.40;;;9.20;99.90;;;;;;5075385;28;20516;-79
2022/10/10 04:40:32;;;;;;;12.07;8.10;;;9.10;99.90;;;;;;5076281;28;20239;-79
2022/10/10 04:42:59;;;;;;;9.13;7.47;;;9.20;99.90;;;;;;5075552;28;20275;-79
2022/10/10 04:45:26;;;;;;;12.20;8.27;;;9.10;99.90;;;;;;5074955;28;20198;-77
2022/10/10 04:47:55;;;;;;;9.60;7.23;;;9.20;99.90;;;;;;5075008;28;20287;-79
2022/10/10 04:50:22;;;;;;;12.40;7.87;;;9.10;99.90;;;;;;5075551;28;20208;-76
2022/10/10 04:52:49;;;;;;;11.17;7.50;;;9.20;99.90;;;;;;5075092;28;20274;-79
2022/10/10 04:55:16;;;;;;;11.33;7.77;;;9.10;99.90;;;;;;5075748;28;20201;-79
2022/10/10 04:57:47;;;;;;;10.70;7.73;;;9.10;99.90;;;;;;5075501;28;20566;-78
2022/10/10 05:00:15;;;;;;;8.87;7.00;;;9.10;99.90;;;;;;5075567;28;20268;-78
2022/10/10 05:02:41;;;;;;;8.17;6.63;;;9.10;99.90;;;;;;5074595;28;20276;-79
2022/10/10 05:05:10;;;;;;;11.43;7.63;;;9.10;99.90;;;;;;5093893;28;20630;-77
2022/10/10 05:07:37;;;;;;;12.27;7.67;;;9.10;99.90;;;;;;5095667;28;20207;-78
2022/10/10 05:10:05;;;;;;;9.20;8.30;;;9.10;99.90;;;;;;5095006;28;20220;-79
2022/10/10 05:12:32;;;;;;;10.33;7.57;;;9.10;99.90;;;;;;5094857;28;20214;-77
2022/10/10 05:14:59;;;;;;;11.23;7.70;;;9.10;99.90;;;;;;5095805;28;20200;-79
2022/10/10 05:17:26;;;;;;;9.20;7.80;;;9.00;99.90;;;;;;5095512;28;20196;-81
2022/10/10 05:19:53;;;;;;;12.23;8.67;;;9.10;99.90;;;;;;5077908;28;20205;-81
2022/10/10 05:22:21;;;;;;;11.23;8.10;;;9.00;99.90;;;;;;5074795;28;20205;-80
2022/10/10 05:24:48;;;;;;;13.50;8.27;;;9.00;99.90;;;;;;5075186;28;20201;-80
2022/10/10 05:27:15;;;;;;;10.67;7.00;;;9.00;99.90;;;;;;5074508;28;20473;-81
2022/10/10 05:29:42;;;;;;;12.50;8.13;;;9.00;99.90;;;;;;5074981;28;20730;-78
2022/10/10 05:32:08;;;;;;;12.67;8.23;;;9.00;99.90;;;;;;5073846;28;20208;-78
2022/10/10 05:34:36;;;;;;;9.07;7.10;;;9.00;99.90;;;;;;5074854;28;20197;-79
2022/10/10 05:37:02;;;;;;;9.43;7.23;;;9.00;99.90;;;;;;5074431;28;20209;-78
2022/10/10 05:39:31;;;;;;;9.97;8.23;;;9.00;99.90;;;;;;5079875;28;20509;-78
2022/10/10 05:41:58;;;;;;;10.33;7.53;;;9.00;99.90;;;;;;5094370;28;20619;-79
2022/10/10 05:44:25;;;;;;;8.70;7.60;;;9.00;99.90;;;;;;5094845;28;20600;-79
2022/10/10 05:46:52;;;;;;;10.83;8.83;;;9.00;99.90;;;;;;5094714;28;20239;-79
2022/10/10 05:49:20;;;;;;;12.67;8.73;;;9.00;99.90;;;;;;5080075;28;20217;-80
2022/10/10 05:51:46;;;;;;;12.97;8.73;;;9.00;99.90;;;;;;5074530;28;20201;-80
2022/10/10 05:54:13;;;;;;;11.60;8.63;;;9.00;99.90;;;;;;5074555;28;20193;-79
2022/10/10 05:56:42;;;;;;;10.57;8.60;;;9.00;99.90;;;;;;5091601;28;20246;-79
2022/10/10 05:59:08;;;;;;;10.53;7.43;;;9.00;99.90;;;;;;5094706;28;20197;-81
2022/10/10 06:01:36;;;;;;;9.93;8.40;;;9.00;99.90;;;;;;5085023;28;20515;-77
2022/10/10 06:04:03;;;;;;;10.90;7.63;;;9.00;99.90;;;;;;5074801;28;20289;-79
2022/10/10 06:06:30;;;;;;;10.07;8.23;;;9.00;99.90;;;;;;5091969;28;20287;-79
2022/10/10 06:08:57;;;;;;;16.13;9.37;;;9.00;99.90;;;;;;5093726;28;20218;-80
2022/10/10 06:11:24;;;;;;;10.40;8.30;;;9.00;99.90;;;;;;5087338;28;20193;-78
2022/10/10 06:13:54;;;;;;;11.87;9.27;;;9.00;99.90;;;;;;5073865;28;20620;-80
2022/10/10 06:16:21;;;;;;;13.10;9.47;;;9.00;99.90;;;;;;5073749;28;20291;-82
2022/10/10 06:18:48;;;;;;;11.70;8.30;;;9.00;99.90;;;;;;5073898;28;20197;-82
2022/10/10 06:21:15;;;;;;;9.87;8.30;;;9.00;99.90;;;;;;5073476;28;20767;-82
2022/10/10 06:23:43;;;;;;;14.83;9.00;;;9.00;99.90;;;;;;5073773;28;20193;-81
2022/10/10 06:26:10;;;;;;;13.43;9.27;;;9.00;99.90;;;;;;5073830;28;20205;-82
2022/10/10 06:28:37;;;;;;;13.90;10.20;;;9.10;99.90;;;;;;5073079;28;20207;-81
2022/10/10 06:31:08;;;;;;;11.60;8.50;;;9.10;99.90;;;;;;5072721;28;20484;-81
2022/10/10 06:33:36;;;;;;;11.93;8.70;;;9.10;99.90;;;;;;5053331;28;20202;-80
2022/10/10 06:36:05;;;;;;;10.90;8.83;;;9.10;99.90;;;;;;5053224;28;20202;-81
2022/10/10 06:38:32;;;;;;;10.37;8.87;;;9.20;99.90;;;;;;5075888;28;20197;-82
2022/10/10 06:41:02;;;;;;;10.00;8.20;;;9.20;99.90;;;;;;5093718;28;20200;-82
2022/10/10 06:43:29;;;;;;;11.27;8.53;;;9.20;99.90;;;;;;5092200;28;20193;-82
2022/10/10 06:45:56;;;;;;;11.50;8.90;;;9.20;99.90;;;;;;5094307;28;20223;-82
2022/10/10 06:48:24;;;;;;;12.70;9.47;;;9.20;99.90;;;;;;5090582;28;20604;-82
2022/10/10 06:51:02;;;;;;;13.40;9.90;;;9.30;99.90;;;;;;5073143;28;20266;-82
2022/10/10 06:53:31;;;;;;;10.00;8.90;;;9.30;99.90;;;;;;5084469;28;20216;-83
2022/10/10 06:55:58;;;;;;;12.77;9.70;;;9.30;99.90;;;;;;5073364;28;20209;-80
2022/10/10 06:58:27;;;;;;;16.27;9.87;;;9.40;99.90;;;;;;5071528;28;20613;-79
2022/10/10 07:00:59;;;;;;;14.00;9.27;;;9.50;99.90;;;;;;5069817;28;20208;-81
2022/10/10 07:03:28;;;;;;;12.60;10.20;;;9.50;99.90;;;;;;5071973;28;20190;-82
2022/10/10 07:05:57;;;;;;;15.00;10.67;;;9.60;99.90;;;;;;5070552;28;20627;-81
2022/10/10 07:08:25;;;;;;;14.03;10.07;;;9.70;99.90;;;;;;5076872;28;20205;-79
2022/10/10 07:10:51;;;;;;;12.50;9.70;;;9.70;99.90;;;;;;5075159;28;20244;-81
2022/10/10 07:13:19;;;;;;;14.93;9.87;;;9.80;99.90;;;;;;5071623;28;20201;-79
2022/10/10 07:15:46;;;;;;;15.70;10.67;;;9.80;99.90;;;;;;5073950;28;20197;-81
2022/10/10 07:18:13;;;;;;;11.23;9.07;;;9.90;99.90;;;;;;5072632;28;20216;-81
2022/10/10 07:20:41;;;;;;;12.37;9.70;;;10.00;99.90;;;;;;5086720;28;20241;-81
2022/10/10 07:23:08;;;;;;;12.20;9.10;;;10.00;99.90;;;;;;5086229;28;20203;-83
2022/10/10 07:25:37;;;;;;;11.43;9.27;;;10.00;99.90;;;;;;5085656;28;20203;-82
2022/10/10 07:28:04;;;;;;;12.53;9.53;;;10.10;99.90;;;;;;5088384;28;20202;-81
2022/10/10 07:30:31;;;;;;;13.60;9.00;;;10.10;99.90;;;;;;5082135;28;20304;-80
2022/10/10 07:32:57;;;;;;;12.63;9.73;;;10.20;99.90;;;;;;5080765;28;20201;-80
2022/10/10 07:35:26;;;;;;;12.00;8.80;;;10.30;99.90;;;;;;5084884;28;20200;-80
2022/10/10 07:37:55;;;;;;;10.10;7.97;;;10.40;99.90;;;;;;5089528;28;20253;-80
2022/10/10 07:40:22;;;;;;;10.50;8.80;;;10.40;99.90;;;;;;5080972;28;20203;-80
2022/10/10 07:42:49;;;;;;;11.83;8.83;;;10.50;99.90;;;;;;5070981;28;20197;-79
2022/10/10 07:45:16;;;;;;;13.13;9.10;;;10.60;99.90;;;;;;5071838;28;20603;-81
2022/10/10 07:47:43;;;;;;;13.63;8.77;;;10.60;99.90;;;;;;5071589;28;20205;-79
2022/10/10 07:50:11;;;;;;;14.10;9.47;;;10.70;99.90;;;;;;5090533;28;20227;-78
2022/10/10 07:52:39;;;;;;;16.63;9.90;;;10.70;99.90;;;;;;5075390;28;20212;-80
2022/10/10 07:55:08;;;;;;;16.27;9.87;;;10.80;99.90;;;;;;5071252;28;20197;-80
2022/10/10 07:57:36;;;;;;;12.37;9.70;;;10.90;99.90;;;;;;5071225;28;20273;-80
2022/10/10 08:00:05;;;;;;;11.20;8.20;;;10.90;99.90;;;;;;5070900;28;20194;-80
2022/10/10 08:02:31;;;;;;;15.83;9.23;;;10.90;99.90;;;;;;5068402;28;20205;-81
2022/10/10 08:04:58;;;;;;;11.00;8.53;;;10.90;99.90;;;;;;5072103;28;20193;-81
2022/10/10 08:07:25;;;;;;;10.83;8.97;;;11.00;99.90;;;;;;5071414;28;20197;-80
2022/10/10 08:09:52;;;;;;;10.37;8.77;;;11.00;99.90;;;;;;5087417;28;20624;-81
2022/10/10 08:12:20;;;;;;;18.07;10.33;;;11.00;99.90;;;;;;5080691;28;20619;-80
2022/10/10 08:14:47;;;;;;;11.93;8.40;;;11.10;99.90;;;;;;5075388;28;20239;-81
2022/10/10 08:17:14;;;;;;;13.97;8.60;;;11.10;99.90;;;;;;5080207;28;20623;-79
2022/10/10 08:19:41;;;;;;;15.17;8.57;;;11.20;99.90;;;;;;5085287;28;20197;-77
2022/10/10 08:22:08;;;;;;;15.30;9.67;;;11.20;99.90;;;;;;5074091;28;20239;-77
2022/10/10 08:24:35;;;;;;;12.60;8.50;;;11.30;99.90;;;;;;5074998;28;20204;-78
2022/10/10 08:27:02;;;;;;;14.53;9.07;;;11.30;99.90;;;;;;5075663;28;20785;-77
2022/10/10 08:29:31;;;;;;;10.30;8.70;;;11.40;99.90;;;;;;5074437;28;20307;-77
2022/10/10 08:31:58;;;;;;;11.10;8.30;;;11.50;99.90;;;;;;5075580;28;20649;-79
2022/10/10 08:34:25;;;;;;;13.50;10.60;;;11.50;99.90;;;;;;5075313;28;20665;-78
2022/10/10 08:36:52;;;;;;;12.03;8.07;;;11.60;99.90;;;;;;5093814;28;20200;-78
2022/10/10 08:39:19;;;;;;;12.80;8.97;;;11.70;99.90;;;;;;5095839;28;20204;-79
2022/10/10 08:41:49;;;;;;;12.60;8.80;;;11.80;99.90;;;;;;5095780;28;20185;-79
2022/10/10 08:44:22;;;;;;;14.20;9.67;;;11.90;99.90;;;;;;5095178;28;20760;-78
2022/10/10 08:46:53;;;;;;;12.70;9.13;;;11.90;99.90;;;;;;5073548;28;20227;-80
2022/10/10 08:49:26;;;;;;;11.37;7.70;;;12.00;99.90;;;;;;5075424;28;20200;-79
2022/10/10 08:51:59;;;;;;;12.30;8.60;;;12.10;99.90;;;;;;5074384;28;20201;-77
2022/10/10 08:54:29;;;;;;;14.87;8.93;;;12.20;99.90;;;;;;5075167;28;20201;-78
2022/10/10 08:57:01;;;;;;;13.83;8.53;;;12.20;99.90;;;;;;5074040;28;20714;-79
2022/10/10 08:59:31;;;;;;;11.83;8.47;;;12.30;99.90;;;;;;5074669;28;20250;-78
2022/10/10 09:02:19;;;;;;;11.93;9.10;;;12.40;99.90;;;;;;5074715;28;20234;-78
2022/10/10 09:04:46;;;;;;;12.00;8.17;;;12.50;99.90;;;;;;5074245;28;20627;-78
2022/10/10 09:07:26;;;;;;;11.87;7.73;;;12.70;99.90;;;;;;5082085;22;20640;-78
2022/10/10 09:10:01;;;;;;;9.87;7.80;;;12.80;99.90;;;;;;5074778;28;20235;-79
2022/10/10 09:12:42;;;;;;;10.37;8.47;;;12.90;99.90;;;;;;5073600;28;20189;-78
2022/10/10 09:15:15;;;;;;;13.23;8.13;;;13.00;99.90;;;;;;5054846;28;20289;-77
2022/10/10 09:17:49;;;;;;;10.53;8.13;;;13.10;99.90;;;;;;5055103;28;20191;-79
2022/10/10 09:20:27;;;;;;;12.20;7.93;;;13.20;99.90;;;;;;5067142;28;20216;-78
2022/10/10 09:22:58;;;;;;;10.20;7.40;;;13.20;99.90;;;;;;5074765;28;20296;-77
2022/10/10 09:25:31;;;;;;;13.33;8.20;;;13.40;99.90;;;;;;5074241;28;20197;-77
2022/10/10 09:28:05;;;;;;;18.57;8.77;;;13.50;99.90;;;;;;5057923;28;20293;-80
2022/10/10 09:30:37;;;;;;;9.97;7.60;;;13.60;99.90;;;;;;5072220;28;20408;-78
2022/10/10 09:33:14;;;;;;;10.10;8.17;;;13.70;99.90;;;;;;5066298;28;20217;-77
2022/10/10 09:35:42;;;;;;;9.50;7.97;;;13.80;99.90;;;;;;5073364;28;20189;-78
2022/10/10 09:38:25;;;;;;;15.07;9.85;;;13.80;99.90;;;;;;5055322;28;20205;-79
2022/10/10 09:40:58;;;;;;;14.38;8.65;;;13.80;99.90;;;;;;5053465;28;20204;-79
2022/10/10 09:43:31;;;;;;;13.25;8.15;;;13.90;99.90;;;;;;5053297;28;20240;-80
2022/10/10 09:45:59;;;;;;;18.45;9.13;;;14.00;99.90;;;;;;5054546;28;20193;-79
2022/10/10 09:48:30;;;;;;;13.00;8.13;;;14.00;99.90;;;;;;5053799;28;20198;-79
2022/10/10 09:50:57;;;;;;;13.52;8.52;;;14.00;99.90;;;;;;5054000;28;20212;-79
2022/10/10 09:53:24;;;;;;;14.05;7.95;;;14.10;99.90;;;;;;5066620;28;20605;-79
2022/10/10 09:55:52;;;;;;;14.35;8.73;;;14.10;99.90;;;;;;5074797;28;20284;-78
2022/10/10 09:58:28;;;;;;;16.92;8.95;;;14.10;99.90;;;;;;5061901;28;20595;-78
2022/10/10 10:01:17;;;;;;;10.55;5.63;;;14.20;99.90;;;;;;5064690;28;20486;-79
2022/10/10 10:04:31;;;;;;;14.38;5.80;;;14.50;99.90;;;;;;5067028;28;20198;-79
2022/10/10 10:07:57;;;;;;;8.77;3.10;;;14.70;99.90;;;;;;5068417;28;20216;-81
2022/10/10 10:13:44;;;;;;;7.07;2.53;;;14.90;99.90;;;;;;5073111;28;20197;-81
2022/10/10 10:16:22;;;;;;;6.90;3.80;;;15.10;99.90;;;;;;5054081;28;20598;-79
2022/10/10 10:35:50;;;;;;;7.50;2.10;;;15.30;99.90;;;;;;5062335;28;20619;-83
2022/10/10 10:38:35;;;;;;;3.97;2.10;;;15.30;99.90;;;;;;5073462;28;20247;-86
2022/10/10 10:41:12;;;;;;;6.75;2.60;;;15.20;99.90;;;;;;5073841;28;20288;-85
2022/10/10 10:43:56;;;;;;;6.78;2.95;;;15.10;99.90;;;;;;5074900;28;20600;-84
2022/10/10 10:46:37;;;;;;;11.38;2.92;;;15.10;99.90;;;;;;5055082;28;20637;-81
2022/10/10 10:49:17;;;;;;;6.47;2.50;;;15.10;99.90;;;;;;5067034;28;20251;-86
2022/10/10 10:52:16;;;;;;;6.35;2.63;;;15.10;99.90;;;;;;5065738;28;20228;-85
2022/10/10 10:54:57;;;;;;;8.65;3.17;;;15.00;99.90;;;;;;5073489;28;20189;-86
2022/10/10 10:57:33;;;;;;;8.70;3.40;;;15.00;99.90;;;;;;5075133;28;20223;-86
2022/10/10 11:00:06;;;;;;;6.85;2.53;;;14.90;99.90;;;;;;5074853;28;20229;-85
2022/10/10 11:02:40;;;;;;;6.05;2.85;;;14.90;99.90;;;;;;5075381;28;20398;-87
2022/10/10 11:05:43;;;;;;;8.73;2.88;;;14.80;99.90;;;;;;5074089;28;20299;-86
2022/10/10 11:08:25;;;;;;;8.95;3.00;;;14.80;99.90;;;;;;5042630;28;20286;-87
2022/10/10 11:11:05;;;;;;;7.53;2.53;;;14.70;99.90;;;;;;5074890;28;20216;-80
2022/10/10 11:13:39;;;;;;;9.52;2.47;;;14.60;99.90;;;;;;5074715;28;20185;-84
2022/10/10 11:16:13;;;;;;;3.45;1.70;;;14.70;99.90;;;;;;5074384;28;20578;-85
2022/10/10 11:18:45;;;;;;;4.43;1.95;;;14.70;99.90;;;;;;5064574;28;20581;-86
2022/10/10 11:21:17;;;;;;;6.50;2.30;;;14.70;99.90;;;;;;5074879;28;20177;-83
2022/10/10 11:23:49;;;;;;;6.10;1.88;;;14.70;99.90;;;;;;5074394;28;20189;-82
2022/10/10 11:26:21;;;;;;;6.70;2.20;;;14.70;99.90;;;;;;5073956;28;20656;-83
2022/10/10 11:28:55;;;;;;;3.20;1.17;;;14.70;99.90;;;;;;5073682;28;20284;-85
2022/10/10 11:31:26;;;;;;;2.53;1.00;;;14.70;99.90;;;;;;5053931;28;20214;-85
2022/10/10 11:33:57;;;;;;;7.60;1.85;;;14.70;99.90;;;;;;5076886;28;20197;-81
2022/10/10 11:36:28;;;;;;;3.08;0.95;;;14.70;99.90;;;;;;5079836;28;20208;-83
2022/10/10 11:39:01;;;;;;;5.18;1.38;;;14.70;99.90;;;;;;5066254;28;20211;-84
2022/10/10 11:41:35;;;;;;;1.90;0.90;;;14.70;99.90;;;;;;5053809;28;20193;-83
2022/10/10 11:44:07;;;;;;;2.70;0.88;;;14.70;99.90;;;;;;5063189;28;20193;-85
2022/10/10 11:46:41;;;;;;;4.22;1.33;;;14.70;99.90;;;;;;5073214;28;20512;-87
2022/10/10 11:49:17;;;;;;;4.05;1.00;;;14.70;99.90;;;;;;5069062;28;20283;-83
2022/10/10 11:52:01;;;;;;;3.13;1.15;;;14.70;99.90;;;;;;5055168;28;20212;-82
2022/10/10 11:54:36;;;;;;;5.10;0.97;;;14.70;99.90;;;;;;5073000;28;20235;-84
2022/10/10 11:57:08;;;;;;;2.20;0.85;;;14.60;99.90;;;;;;5066761;28;20221;-79
2022/10/10 11:59:41;;;;;;;1.60;0.60;;;14.60;99.90;;;;;;5055559;28;20200;-79
2022/10/10 12:02:17;;;;;;;7.30;1.20;;;14.60;99.90;;;;;;5051190;28;20240;-78
2022/10/10 12:04:44;;;;;;;2.13;0.70;;;14.60;99.90;;;;;;5069830;28;20195;-84
2022/10/10 12:07:17;;;;;;;2.10;0.65;;;14.50;99.90;;;;;;5080051;28;20201;-81
2022/10/10 12:09:50;;;;;;;7.60;1.58;;;14.40;99.90;;;;;;5060159;28;20193;-85
2022/10/10 12:12:22;;;;;;;7.87;1.77;;;14.40;99.90;;;;;;5053302;28;20206;-82
2022/10/10 12:14:54;;;;;;;9.30;1.90;;;14.30;99.90;;;;;;5066685;28;20204;-83
2022/10/10 12:17:25;;;;;;;7.53;2.42;;;14.20;99.90;;;;;;5056895;28;20201;-81
2022/10/10 12:19:53;;;;;;;10.57;2.30;;;14.10;99.90;;;;;;5066944;28;20200;-83
2022/10/10 12:22:26;;;;;;;4.68;1.70;;;14.00;99.90;;;;;;5074931;28;20197;-85
2022/10/10 12:25:21;;;;;;;11.15;1.80;;;13.90;99.90;;;;;;5072892;28;20254;-82
2022/10/10 12:28:04;;;;;;;8.80;1.77;;;13.90;99.90;;;;;;5053266;28;20206;-80
2022/10/10 12:30:31;;;;;;;4.40;1.53;;;13.80;99.90;;;;;;5064688;28;20206;-79
2022/10/10 12:32:58;;;;;;;4.80;1.23;;;13.70;99.90;;;;;;5060837;28;20190;-82
2022/10/10 12:35:32;;;;;;;5.70;1.30;;;13.70;99.90;;;;;;5072011;28;20308;-76
2022/10/10 12:38:20;;;;;;;3.23;1.10;;;13.70;99.90;;;;;;5072769;28;20208;-87
2022/10/10 12:41:19;;;;;;;5.90;1.37;;;13.70;99.90;;;;;;5052693;28;20197;-81
2022/10/10 12:44:14;;;;;;;8.90;1.80;;;13.70;99.90;;;;;;5045089;28;20583;-84
2022/10/10 12:46:42;;;;;;;11.80;1.93;;;13.60;99.90;;;;;;5073738;28;20311;-87
2022/10/10 12:49:19;;;;;;;13.80;2.27;;;13.60;99.90;;;;;;5052389;28;20510;-86
2022/10/10 12:52:03;;;;;;;13.63;2.53;;;13.50;99.90;;;;;;5072541;28;20619;-86
2022/10/10 12:54:34;;;;;;;11.13;2.00;;;13.50;99.90;;;;;;5072133;28;20243;-83
2022/10/10 12:57:07;;;;;;;10.47;2.53;;;13.40;99.90;;;;;;5076740;28;20308;-84
2022/10/10 12:59:37;;;;;;;10.37;2.73;;;13.40;99.90;;;;;;5076921;28;20205;-83
2022/10/10 13:02:10;;;;;;;16.03;2.70;;;13.40;99.90;;;;;;5077438;28;20197;-75
2022/10/10 13:04:40;;;;;;;14.60;2.47;;;13.40;99.90;;;;;;5076199;28;20252;-77
2022/10/10 13:07:10;;;;;;;9.40;2.50;;;13.30;99.90;;;;;;5075521;28;20189;-77
2022/10/10 13:09:37;;;;;;;14.87;2.80;;;13.30;99.90;;;;;;5073979;28;20217;-78
2022/10/10 13:12:06;;;;;;;13.93;2.97;;;13.30;99.90;;;;;;5085139;28;20228;-84
2022/10/10 13:14:45;;;;;;;15.27;5.50;;;13.30;99.90;;;;;;5081019;28;20189;-87
2022/10/10 13:17:22;;;;;;;20.17;8.27;;;13.30;99.90;;;;;;5071568;28;20286;-76
2022/10/10 13:19:49;;;;;;;14.03;3.80;;;13.30;99.90;;;;;;5074741;28;20189;-77
2022/10/10 13:22:17;;;;;;;12.80;3.23;;;13.40;99.90;;;;;;5067859;28;20197;-81
2022/10/10 13:24:45;;;;;;;14.70;3.67;;;13.50;99.90;;;;;;5074128;28;20235;-76